Time;durP1;ratioP1;P1;durP2;ratioP2;P2;SDS_P1;SDS_P2;PMS_P1;PMS_P2;Temp;Humidity;BMP_temperature;BMP_pressure;BME280_temperature;BME280_humidity;BME280_pressure;Samples;Min_cycle;Max_cycle;Signal;HPM_P1;HPM_P2
2021/09/21 00:00:39;;;;;;;8.15;4.13;;;;;;;;;;5054897;28;20488;-82
2021/09/21 00:03:24;;;;;;;8.00;4.13;;;;;;;;;;5057536;28;20044;-82
2021/09/21 00:06:08;;;;;;;8.15;4.57;;;;;;;;;;5055202;28;20036;-82
2021/09/21 00:08:53;;;;;;;7.18;4.13;;;;;;;;;;5050640;28;20469;-82
2021/09/21 00:11:37;;;;;;;7.28;4.20;;;;;;;;;;5042502;28;20540;-82
2021/09/21 00:14:21;;;;;;;7.72;4.40;;;;;;;;;;5052049;28;20425;-82
2021/09/21 00:17:06;;;;;;;6.70;4.22;;;;;;;;;;5050554;28;20544;-82
2021/09/21 00:19:51;;;;;;;7.32;4.05;;;;;;;;;;5040841;28;20144;-82
2021/09/21 00:22:35;;;;;;;9.50;4.20;;;;;;;;;;5054924;28;20090;-81
2021/09/21 00:25:20;;;;;;;7.40;4.18;;;;;;;;;;5052866;28;20036;-81
2021/09/21 00:28:04;;;;;;;7.35;4.07;;;;;;;;;;5059720;28;20524;-82
2021/09/21 00:30:51;;;;;;;8.45;4.65;;;;;;;;;;5066148;28;20046;-81
2021/09/21 00:34:04;;;;;;;9.38;4.25;;;;;;;;;;5067158;28;20118;-82
2021/09/21 00:36:49;;;;;;;6.45;4.10;;;;;;;;;;5063522;28;20420;-82
2021/09/21 00:39:34;;;;;;;9.38;4.20;;;;;;;;;;5049358;28;20117;-81
2021/09/21 00:42:28;;;;;;;6.25;4.03;;;;;;;;;;5054237;28;20090;-81
2021/09/21 00:45:18;;;;;;;7.90;4.10;;;;;;;;;;5065354;28;20055;-82
2021/09/21 00:48:03;;;;;;;6.72;4.07;;;;;;;;;;5038115;28;20054;-81
2021/09/21 00:50:48;;;;;;;7.65;4.22;;;;;;;;;;5056565;28;20101;-82
2021/09/21 00:53:33;;;;;;;6.32;4.25;;;;;;;;;;5066844;28;20040;-82
2021/09/21 00:56:17;;;;;;;7.45;4.30;;;;;;;;;;5055834;28;20406;-82
2021/09/21 00:59:01;;;;;;;7.18;3.88;;;;;;;;;;5058817;28;20039;-82
2021/09/21 01:01:46;;;;;;;9.18;4.15;;;;;;;;;;5052202;28;20097;-82
2021/09/21 01:04:31;;;;;;;7.97;4.07;;;;;;;;;;5046551;28;20643;-82
2021/09/21 01:07:16;;;;;;;9.45;4.40;;;;;;;;;;5050194;28;20082;-82
2021/09/21 01:10:04;;;;;;;5.78;3.85;;;;;;;;;;5065943;28;20051;-82
2021/09/21 01:12:49;;;;;;;8.57;3.75;;;;;;;;;;5062629;28;20063;-82
2021/09/21 01:15:34;;;;;;;7.10;4.18;;;;;;;;;;5056742;28;20156;-82
2021/09/21 01:18:18;;;;;;;6.97;3.85;;;;;;;;;;5051362;28;20662;-81
2021/09/21 01:21:04;;;;;;;8.88;3.70;;;;;;;;;;5056024;28;20155;-77
2021/09/21 01:23:52;;;;;;;7.40;4.20;;;;;;;;;;5065566;28;20087;-82
2021/09/21 01:26:37;;;;;;;7.32;3.72;;;;;;;;;;5046944;28;20040;-82
2021/09/21 01:29:22;;;;;;;10.35;4.15;;;;;;;;;;5046225;28;20461;-82
2021/09/21 01:32:06;;;;;;;5.57;3.55;;;;;;;;;;5046773;28;20083;-82
2021/09/21 01:34:51;;;;;;;5.65;3.40;;;;;;;;;;5047216;28;20599;-82
2021/09/21 01:37:37;;;;;;;6.70;3.63;;;;;;;;;;5046035;28;20039;-82
2021/09/21 01:40:22;;;;;;;10.20;4.00;;;;;;;;;;5046101;28;20090;-82
2021/09/21 01:43:07;;;;;;;5.55;3.40;;;;;;;;;;5052921;28;20158;-82
2021/09/21 01:45:51;;;;;;;7.40;3.58;;;;;;;;;;5045935;28;20116;-82
2021/09/21 01:48:36;;;;;;;5.53;3.33;;;;;;;;;;5048768;28;20043;-82
2021/09/21 01:51:30;;;;;;;8.23;3.80;;;;;;;;;;5057418;28;20722;-82
2021/09/21 02:00:03;;;;;;;7.18;4.10;;;;;;;;;;5051254;28;20055;-82
2021/09/21 02:02:48;;;;;;;6.57;3.50;;;;;;;;;;5069078;28;20043;-82
2021/09/21 02:05:33;;;;;;;6.28;3.60;;;;;;;;;;5049452;28;20130;-82
2021/09/21 02:08:17;;;;;;;7.05;3.50;;;;;;;;;;5055260;28;20039;-82
2021/09/21 02:11:02;;;;;;;8.40;3.67;;;;;;;;;;5067774;28;20772;-82
2021/09/21 02:13:46;;;;;;;7.80;3.53;;;;;;;;;;5066253;28;20124;-82
2021/09/21 02:16:31;;;;;;;7.00;3.72;;;;;;;;;;5047511;28;20527;-82
2021/09/21 02:19:16;;;;;;;8.20;3.88;;;;;;;;;;5059723;28;20457;-82
2021/09/21 02:22:01;;;;;;;7.03;3.28;;;;;;;;;;5053578;28;20629;-81
2021/09/21 02:24:46;;;;;;;7.03;3.60;;;;;;;;;;5053869;28;20044;-82
2021/09/21 02:27:30;;;;;;;7.53;3.53;;;;;;;;;;5057202;28;20075;-82
2021/09/21 02:30:15;;;;;;;6.10;3.42;;;;;;;;;;5043875;28;20114;-83
2021/09/21 02:32:59;;;;;;;7.25;3.75;;;;;;;;;;5047264;28;20043;-82
2021/09/21 02:35:44;;;;;;;9.52;3.90;;;;;;;;;;5045922;28;20059;-82
2021/09/21 02:38:28;;;;;;;7.60;3.35;;;;;;;;;;5056739;28;20039;-82
2021/09/21 02:41:13;;;;;;;6.85;3.47;;;;;;;;;;5065625;28;20124;-83
2021/09/21 02:43:57;;;;;;;6.72;3.78;;;;;;;;;;5050733;28;20150;-82
2021/09/21 02:46:42;;;;;;;6.25;3.05;;;;;;;;;;5047200;28;20048;-82
2021/09/21 02:49:26;;;;;;;6.50;3.15;;;;;;;;;;5047319;28;20048;-83
2021/09/21 02:52:11;;;;;;;6.63;3.15;;;;;;;;;;5049272;28;20048;-82
2021/09/21 02:54:55;;;;;;;7.85;3.38;;;;;;;;;;5050997;28;20063;-83
2021/09/21 02:57:40;;;;;;;7.25;3.35;;;;;;;;;;5048184;28;20036;-83
2021/09/21 03:00:26;;;;;;;6.82;3.30;;;;;;;;;;5050055;28;20520;-83
2021/09/21 03:03:11;;;;;;;5.75;3.38;;;;;;;;;;5056495;28;20052;-82
2021/09/21 03:06:06;;;;;;;8.15;3.05;;;;;;;;;;5050745;28;20045;-82
2021/09/21 03:08:53;;;;;;;6.68;3.30;;;;;;;;;;5046954;28;20044;-83
2021/09/21 03:11:48;;;;;;;6.53;3.10;;;;;;;;;;5057853;28;20105;-82
2021/09/21 03:17:36;;;;;;;7.28;3.20;;;;;;;;;;5059694;28;20086;-83
2021/09/21 03:20:21;;;;;;;6.00;3.05;;;;;;;;;;5032731;28;20606;-82
2021/09/21 03:23:05;;;;;;;6.00;3.17;;;;;;;;;;5037251;28;20044;-82
2021/09/21 03:25:50;;;;;;;8.63;3.42;;;;;;;;;;5046628;28;20060;-83
2021/09/21 03:28:34;;;;;;;6.93;3.47;;;;;;;;;;5046309;28;20116;-82
2021/09/21 03:31:19;;;;;;;6.32;2.88;;;;;;;;;;5032495;28;20589;-83
2021/09/21 03:34:04;;;;;;;6.45;3.53;;;;;;;;;;5032367;28;20087;-82
2021/09/21 03:36:48;;;;;;;8.00;3.78;;;;;;;;;;5063053;28;20126;-83
2021/09/21 03:39:33;;;;;;;10.52;3.80;;;;;;;;;;5066448;28;20579;-83
2021/09/21 03:42:18;;;;;;;9.52;3.83;;;;;;;;;;5052174;28;20051;-82
2021/09/21 03:45:03;;;;;;;7.90;3.78;;;;;;;;;;5067257;28;20074;-82
2021/09/21 03:47:47;;;;;;;7.85;4.22;;;;;;;;;;5067447;28;20098;-82
2021/09/21 03:50:32;;;;;;;7.60;4.03;;;;;;;;;;5067365;28;20093;-82
2021/09/21 03:53:16;;;;;;;9.90;3.88;;;;;;;;;;5066301;28;20067;-83
2021/09/21 03:56:01;;;;;;;11.50;4.22;;;;;;;;;;5066283;28;20467;-82
2021/09/21 03:58:46;;;;;;;9.88;4.50;;;;;;;;;;5051611;28;20082;-83
2021/09/21 04:01:31;;;;;;;10.13;4.30;;;;;;;;;;5051960;28;20464;-83
2021/09/21 04:04:15;;;;;;;8.75;3.70;;;;;;;;;;5052226;28;20351;-81
2021/09/21 04:07:00;;;;;;;9.40;3.95;;;;;;;;;;5066247;28;20059;-82
2021/09/21 04:09:44;;;;;;;9.40;4.57;;;;;;;;;;5052129;28;20085;-82
2021/09/21 04:12:29;;;;;;;6.88;4.30;;;;;;;;;;5066081;28;20064;-82
2021/09/21 04:15:13;;;;;;;9.50;5.03;;;;;;;;;;5065937;28;20543;-82
2021/09/21 04:17:58;;;;;;;8.32;4.22;;;;;;;;;;5045497;28;20035;-82
2021/09/21 04:20:42;;;;;;;8.25;4.25;;;;;;;;;;5045741;28;20774;-82
2021/09/21 04:23:27;;;;;;;7.78;4.10;;;;;;;;;;5046125;28;20564;-82
2021/09/21 04:26:11;;;;;;;10.20;4.50;;;;;;;;;;5045809;28;20052;-83
2021/09/21 04:28:56;;;;;;;8.63;4.30;;;;;;;;;;5045957;28;20040;-82
2021/09/21 04:31:45;;;;;;;7.75;4.40;;;;;;;;;;5046806;28;20646;-82
2021/09/21 04:34:30;;;;;;;10.02;4.63;;;;;;;;;;5059957;28;20464;-82
2021/09/21 04:37:15;;;;;;;8.07;3.97;;;;;;;;;;5061406;28;20537;-82
2021/09/21 04:39:59;;;;;;;8.80;4.50;;;;;;;;;;5051595;28;20079;-82
2021/09/21 04:42:44;;;;;;;7.35;3.85;;;;;;;;;;5045609;28;20132;-83
2021/09/21 04:45:29;;;;;;;9.25;4.50;;;;;;;;;;5045723;28;20095;-82
2021/09/21 04:48:14;;;;;;;7.68;4.25;;;;;;;;;;5062249;28;20106;-82
2021/09/21 04:50:58;;;;;;;7.75;4.22;;;;;;;;;;5062730;28;20393;-82
2021/09/21 04:53:43;;;;;;;7.45;3.72;;;;;;;;;;5048797;28;20063;-81
2021/09/21 04:56:27;;;;;;;8.90;4.05;;;;;;;;;;5061622;28;20671;-82
2021/09/21 04:59:12;;;;;;;8.60;4.15;;;;;;;;;;5052223;28;20106;-82
2021/09/21 05:01:56;;;;;;;12.23;4.72;;;;;;;;;;5044337;28;20051;-82
2021/09/21 05:04:41;;;;;;;8.82;3.97;;;;;;;;;;5044032;28;20085;-81
2021/09/21 05:07:25;;;;;;;9.13;3.80;;;;;;;;;;5044378;28;20036;-82
2021/09/21 05:10:10;;;;;;;8.02;4.18;;;;;;;;;;5030452;28;20095;-82
2021/09/21 05:12:56;;;;;;;6.63;3.70;;;;;;;;;;5035162;28;20432;-83
2021/09/21 05:15:40;;;;;;;7.38;4.10;;;;;;;;;;5046361;28;20784;-83
2021/09/21 05:18:25;;;;;;;8.35;4.30;;;;;;;;;;5064245;28;20065;-83
2021/09/21 05:21:09;;;;;;;9.30;3.97;;;;;;;;;;5067140;28;20039;-82
2021/09/21 05:23:54;;;;;;;7.30;3.67;;;;;;;;;;5066393;28;20090;-82
2021/09/21 05:26:38;;;;;;;7.55;3.75;;;;;;;;;;5066068;28;20035;-83
2021/09/21 05:29:23;;;;;;;7.18;3.25;;;;;;;;;;5066258;28;20114;-82
2021/09/21 05:32:08;;;;;;;7.25;3.70;;;;;;;;;;5066968;28;20600;-83
2021/09/21 05:34:53;;;;;;;9.88;4.18;;;;;;;;;;5067000;28;20055;-82
2021/09/21 05:37:38;;;;;;;8.52;3.83;;;;;;;;;;5067132;28;20047;-82
2021/09/21 05:40:22;;;;;;;6.30;3.80;;;;;;;;;;5066021;28;20044;-82
2021/09/21 05:43:07;;;;;;;8.38;3.58;;;;;;;;;;5052783;28;20051;-82
2021/09/21 05:45:52;;;;;;;6.60;3.83;;;;;;;;;;5065843;28;20074;-82
2021/09/21 05:48:36;;;;;;;8.98;3.58;;;;;;;;;;5086104;28;20043;-81
2021/09/21 05:51:21;;;;;;;6.82;3.92;;;;;;;;;;5072059;28;20459;-82
2021/09/21 05:54:05;;;;;;;9.20;3.40;;;;;;;;;;5071492;28;20042;-78
2021/09/21 05:56:50;;;;;;;8.52;3.63;;;;;;;;;;5087275;28;20050;-82
2021/09/21 05:59:34;;;;;;;9.95;3.88;;;;;;;;;;5085623;28;20084;-83
2021/09/21 06:02:23;;;;;;;6.82;3.50;;;;;;;;;;5085584;28;20047;-82
2021/09/21 06:05:08;;;;;;;5.70;3.33;;;;;;;;;;5086882;28;20495;-78
2021/09/21 06:07:54;;;;;;;6.25;3.35;;;;;;;;;;5086914;28;20058;-83
2021/09/21 06:10:38;;;;;;;6.38;3.42;;;;;;;;;;5074425;28;20130;-83
2021/09/21 06:13:23;;;;;;;6.25;3.42;;;;;;;;;;5066279;28;20043;-82
2021/09/21 06:16:08;;;;;;;6.53;3.35;;;;;;;;;;5052246;28;20047;-83
2021/09/21 06:18:52;;;;;;;7.13;3.10;;;;;;;;;;5057106;28;20040;-83
2021/09/21 06:21:37;;;;;;;5.80;3.20;;;;;;;;;;5053615;28;20082;-83
2021/09/21 06:24:21;;;;;;;8.63;3.50;;;;;;;;;;5045220;28;20720;-82
2021/09/21 06:27:06;;;;;;;6.28;3.35;;;;;;;;;;5045569;28;20059;-83
2021/09/21 06:29:50;;;;;;;6.20;3.58;;;;;;;;;;5045208;28;20635;-82
2021/09/21 06:32:34;;;;;;;7.45;3.33;;;;;;;;;;5044977;28;20087;-82
2021/09/21 06:35:19;;;;;;;7.13;3.45;;;;;;;;;;5045186;28;20059;-83
2021/09/21 06:38:03;;;;;;;4.63;2.97;;;;;;;;;;5031035;28;20063;-82
2021/09/21 06:40:48;;;;;;;7.93;3.15;;;;;;;;;;5044818;28;20044;-81
2021/09/21 06:43:33;;;;;;;5.97;3.58;;;;;;;;;;5064761;28;20043;-82
2021/09/21 06:46:17;;;;;;;7.20;3.40;;;;;;;;;;5086038;28;20128;-82
2021/09/21 06:49:02;;;;;;;7.00;3.40;;;;;;;;;;5070813;28;20051;-82
2021/09/21 06:51:47;;;;;;;5.72;3.13;;;;;;;;;;5085848;28;20086;-83
2021/09/21 06:54:31;;;;;;;8.45;3.28;;;;;;;;;;5084847;28;20475;-82
2021/09/21 06:57:16;;;;;;;5.32;3.13;;;;;;;;;;5084343;28;20183;-82
2021/09/21 07:00:01;;;;;;;6.68;3.17;;;;;;;;;;5084926;28;20420;-83
2021/09/21 07:02:52;;;;;;;5.13;3.28;;;;;;;;;;5085532;28;20055;-82
2021/09/21 07:05:37;;;;;;;5.55;2.83;;;;;;;;;;5084765;28;20109;-82
2021/09/21 07:08:21;;;;;;;5.90;3.10;;;;;;;;;;5069849;28;20516;-81
2021/09/21 07:11:06;;;;;;;5.90;3.10;;;;;;;;;;5084548;28;20112;-82
2021/09/21 07:13:51;;;;;;;8.02;3.58;;;;;;;;;;5082385;28;20937;-83
2021/09/21 07:16:36;;;;;;;6.55;3.08;;;;;;;;;;5044149;28;20059;-82
2021/09/21 07:19:20;;;;;;;4.43;2.95;;;;;;;;;;5055577;28;20091;-77
2021/09/21 07:22:05;;;;;;;6.38;3.38;;;;;;;;;;5045148;28;20079;-82
2021/09/21 07:24:50;;;;;;;5.50;2.92;;;;;;;;;;5043916;28;20078;-82
2021/09/21 07:27:34;;;;;;;6.65;3.30;;;;;;;;;;5044123;28;20044;-83
2021/09/21 07:30:19;;;;;;;7.25;3.05;;;;;;;;;;5049368;28;20118;-82
2021/09/21 07:33:06;;;;;;;6.50;2.92;;;;;;;;;;5063170;28;20523;-82
2021/09/21 07:35:50;;;;;;;5.45;3.15;;;;;;;;;;5063582;28;20128;-82
2021/09/21 07:38:35;;;;;;;6.30;3.08;;;;;;;;;;5049673;28;20110;-82
2021/09/21 07:41:19;;;;;;;6.47;3.30;;;;;;;;;;5064855;28;20043;-83
2021/09/21 07:44:04;;;;;;;6.65;3.13;;;;;;;;;;5063893;28;20106;-78
2021/09/21 07:46:49;;;;;;;5.70;3.28;;;;;;;;;;5052406;28;20111;-83
2021/09/21 07:49:34;;;;;;;5.88;3.47;;;;;;;;;;5043602;28;20043;-83
2021/09/21 07:52:18;;;;;;;7.47;2.97;;;;;;;;;;5054002;28;20706;-82
2021/09/21 07:55:04;;;;;;;6.18;3.10;;;;;;;;;;5047136;28;20105;-83
2021/09/21 07:57:49;;;;;;;6.32;3.30;;;;;;;;;;5063625;28;20082;-83
2021/09/21 08:00:33;;;;;;;6.97;3.30;;;;;;;;;;5043372;28;20051;-81
2021/09/21 08:03:18;;;;;;;5.10;3.00;;;;;;;;;;5043525;28;20112;-82
2021/09/21 08:06:02;;;;;;;8.02;3.20;;;;;;;;;;5054885;28;20519;-82
2021/09/21 08:08:47;;;;;;;7.53;3.33;;;;;;;;;;5061345;28;20091;-82
2021/09/21 08:11:31;;;;;;;7.80;3.40;;;;;;;;;;5047576;28;20918;-82
2021/09/21 08:14:16;;;;;;;4.68;2.90;;;;;;;;;;5043536;28;20501;-82
2021/09/21 08:17:00;;;;;;;4.85;2.95;;;;;;;;;;5041056;28;20115;-82
2021/09/21 08:19:44;;;;;;;7.15;3.15;;;;;;;;;;5031999;28;20146;-82
2021/09/21 08:22:29;;;;;;;6.70;2.80;;;;;;;;;;5064478;28;20071;-82
2021/09/21 08:25:14;;;;;;;7.03;3.20;;;;;;;;;;5062966;28;20102;-78
2021/09/21 08:27:59;;;;;;;6.53;2.78;;;;;;;;;;5057838;28;20043;-82
2021/09/21 08:30:43;;;;;;;5.97;2.95;;;;;;;;;;5062556;28;20047;-81
2021/09/21 08:33:28;;;;;;;6.15;2.83;;;;;;;;;;5052918;28;20166;-82
2021/09/21 08:36:12;;;;;;;6.03;2.80;;;;;;;;;;5048857;28;20067;-82
2021/09/21 08:38:57;;;;;;;5.72;2.70;;;;;;;;;;5046820;28;20039;-82
2021/09/21 08:41:41;;;;;;;6.03;2.78;;;;;;;;;;5042645;28;20075;-82
2021/09/21 08:44:26;;;;;;;6.47;3.00;;;;;;;;;;5064625;28;20035;-81
2021/09/21 08:47:10;;;;;;;6.70;2.97;;;;;;;;;;5062821;28;20047;-81
2021/09/21 08:49:56;;;;;;;4.63;2.78;;;;;;;;;;5048891;28;20070;-77
2021/09/21 08:52:41;;;;;;;5.70;3.10;;;;;;;;;;5046488;28;20044;-81
2021/09/21 08:55:25;;;;;;;4.82;2.60;;;;;;;;;;5066507;28;20113;-81
2021/09/21 08:58:10;;;;;;;4.22;2.92;;;;;;;;;;5066653;28;20607;-81
2021/09/21 09:00:54;;;;;;;6.28;2.78;;;;;;;;;;5066819;28;20047;-80
2021/09/21 09:03:38;;;;;;;7.25;2.88;;;;;;;;;;5067649;28;20054;-81
2021/09/21 09:06:23;;;;;;;5.05;2.90;;;;;;;;;;5063352;28;20097;-80
2021/09/21 09:09:12;;;;;;;5.15;2.88;;;;;;;;;;5074656;28;20031;-84
2021/09/21 09:11:57;;;;;;;8.48;3.08;;;;;;;;;;5074745;28;20178;-81
2021/09/21 09:14:42;;;;;;;5.80;2.90;;;;;;;;;;5045792;28;20048;-81
2021/09/21 09:17:27;;;;;;;5.68;2.55;;;;;;;;;;5032199;28;20178;-78
2021/09/21 09:20:11;;;;;;;6.28;2.67;;;;;;;;;;5046481;28;20153;-81
2021/09/21 09:22:56;;;;;;;5.20;2.70;;;;;;;;;;5046489;28;20078;-81
2021/09/21 09:25:41;;;;;;;4.47;2.63;;;;;;;;;;5051233;28;20039;-79
2021/09/21 09:28:26;;;;;;;4.80;2.53;;;;;;;;;;5054013;28;20074;-80
2021/09/21 09:31:11;;;;;;;4.38;2.63;;;;;;;;;;5059345;28;20082;-80
2021/09/21 09:34:09;;;;;;;4.47;2.40;;;;;;;;;;5042461;28;20043;-81
2021/09/21 09:36:54;;;;;;;4.80;2.42;;;;;;;;;;5053153;28;20417;-81
2021/09/21 09:39:40;;;;;;;4.15;2.33;;;;;;;;;;5062418;28;20043;-78
2021/09/21 09:42:25;;;;;;;4.63;2.40;;;;;;;;;;5050711;28;20109;-81
2021/09/21 09:45:10;;;;;;;4.38;2.20;;;;;;;;;;5045555;28;20544;-80
2021/09/21 09:47:54;;;;;;;5.70;2.40;;;;;;;;;;5049351;28;20073;-79
2021/09/21 09:50:42;;;;;;;5.07;2.40;;;;;;;;;;5065586;28;20093;-81
2021/09/21 09:53:28;;;;;;;3.58;2.40;;;;;;;;;;5050194;28;20071;-81
2021/09/21 09:56:12;;;;;;;4.38;2.72;;;;;;;;;;5063591;28;20044;-80
2021/09/21 09:58:56;;;;;;;4.78;2.40;;;;;;;;;;5055261;28;20057;-81
2021/09/21 10:01:42;;;;;;;4.13;2.33;;;;;;;;;;5045868;28;20745;-81
2021/09/21 10:04:26;;;;;;;4.75;2.47;;;;;;;;;;5060195;28;20032;-80
2021/09/21 10:07:11;;;;;;;4.75;2.30;;;;;;;;;;5080268;28;20616;-81
2021/09/21 10:09:56;;;;;;;4.43;2.25;;;;;;;;;;5085510;28;20157;-81
2021/09/21 10:12:40;;;;;;;4.18;2.00;;;;;;;;;;5059016;28;20040;-80
2021/09/21 10:15:28;;;;;;;3.35;2.38;;;;;;;;;;5077846;28;20584;-80
2021/09/21 10:18:17;;;;;;;2.70;2.15;;;;;;;;;;5079369;28;20047;-80
2021/09/21 10:21:03;;;;;;;4.75;2.30;;;;;;;;;;5055686;28;20157;-81
2021/09/21 10:23:50;;;;;;;4.07;2.03;;;;;;;;;;5062843;28;20166;-80
2021/09/21 10:26:41;;;;;;;4.25;2.10;;;;;;;;;;5050047;28;20098;-78
2021/09/21 10:29:29;;;;;;;3.97;2.10;;;;;;;;;;5041320;28;20063;-80
2021/09/21 10:32:17;;;;;;;3.60;2.05;;;;;;;;;;5064246;28;20511;-79
2021/09/21 10:35:08;;;;;;;2.40;1.70;;;;;;;;;;5047793;28;20052;-80
2021/09/21 10:38:11;;;;;;;2.88;1.98;;;;;;;;;;5058970;28;20516;-80
2021/09/21 10:41:03;;;;;;;4.07;1.85;;;;;;;;;;5053604;28;20090;-81
2021/09/21 10:43:57;;;;;;;3.78;1.70;;;;;;;;;;5073557;28;20051;-81
2021/09/21 10:46:52;;;;;;;3.65;2.00;;;;;;;;;;5069723;28;20809;-81
2021/09/21 10:49:38;;;;;;;4.70;1.98;;;;;;;;;;5049217;28;20118;-80
2021/09/21 10:52:26;;;;;;;2.92;1.65;;;;;;;;;;5063914;28;20507;-81
2021/09/21 10:55:14;;;;;;;3.30;1.52;;;;;;;;;;5063736;28;20048;-81
2021/09/21 10:58:03;;;;;;;2.35;1.40;;;;;;;;;;5072186;28;20089;-80
2021/09/21 11:00:47;;;;;;;2.35;1.60;;;;;;;;;;5079460;28;20566;-81
2021/09/21 11:03:32;;;;;;;2.45;1.52;;;;;;;;;;5063131;28;20413;-81
2021/09/21 11:06:17;;;;;;;2.72;1.70;;;;;;;;;;5063347;28;20047;-78
2021/09/21 11:09:01;;;;;;;2.90;1.75;;;;;;;;;;5052444;28;20405;-81
2021/09/21 11:11:46;;;;;;;2.22;1.38;;;;;;;;;;5064774;28;20054;-79
2021/09/21 11:14:31;;;;;;;2.17;1.30;;;;;;;;;;5066792;28;20188;-80
2021/09/21 11:17:15;;;;;;;2.17;1.30;;;;;;;;;;5062638;28;20540;-80
2021/09/21 11:20:00;;;;;;;2.50;1.40;;;;;;;;;;5055259;28;20463;-80
2021/09/21 11:22:49;;;;;;;4.43;1.80;;;;;;;;;;5073687;28;20058;-81
2021/09/21 11:25:34;;;;;;;3.15;1.90;;;;;;;;;;5080481;28;20558;-81
2021/09/21 11:28:18;;;;;;;3.03;1.50;;;;;;;;;;5068323;28;20162;-78
2021/09/21 11:31:03;;;;;;;2.60;1.60;;;;;;;;;;5044272;28;20039;-77
2021/09/21 11:33:51;;;;;;;2.50;1.60;;;;;;;;;;5053205;28;20127;-77
2021/09/21 11:36:38;;;;;;;2.05;1.48;;;;;;;;;;5054015;28;20106;-80
2021/09/21 11:39:23;;;;;;;2.40;1.42;;;;;;;;;;5047921;28;20489;-79
2021/09/21 11:42:08;;;;;;;3.00;1.50;;;;;;;;;;5044677;28;20124;-80
2021/09/21 11:45:06;;;;;;;3.97;1.60;;;;;;;;;;5043515;28;20163;-78
2021/09/21 11:47:51;;;;;;;4.10;1.50;;;;;;;;;;5061760;28;20658;-73
2021/09/21 11:50:36;;;;;;;1.85;1.38;;;;;;;;;;5084964;28;20096;-73
2021/09/21 11:53:22;;;;;;;2.00;1.40;;;;;;;;;;5085925;28;20088;-80
2021/09/21 11:56:08;;;;;;;3.20;1.40;;;;;;;;;;5072056;28;20075;-78
2021/09/21 11:58:59;;;;;;;2.50;1.30;;;;;;;;;;5063151;28;20106;-82
2021/09/21 12:01:52;;;;;;;3.25;1.45;;;;;;;;;;5050649;28;20051;-82
2021/09/21 12:04:42;;;;;;;3.35;1.50;;;;;;;;;;5064816;28;20046;-82
2021/09/21 12:07:27;;;;;;;1.85;1.30;;;;;;;;;;5051101;28;20046;-82
2021/09/21 12:10:11;;;;;;;3.60;1.60;;;;;;;;;;5050628;28;20039;-82
2021/09/21 12:13:04;;;;;;;1.73;1.20;;;;;;;;;;5075384;28;20044;-83
2021/09/21 12:15:50;;;;;;;2.33;1.48;;;;;;;;;;5054336;28;20059;-82
2021/09/21 12:18:35;;;;;;;2.75;1.55;;;;;;;;;;5055940;28;20028;-84
2021/09/21 12:21:20;;;;;;;2.38;1.30;;;;;;;;;;5033451;28;20124;-82
2021/09/21 12:24:06;;;;;;;1.92;1.45;;;;;;;;;;5046824;28;20414;-81
2021/09/21 12:26:50;;;;;;;2.40;1.40;;;;;;;;;;5047374;28;20044;-82
2021/09/21 12:29:35;;;;;;;1.75;1.40;;;;;;;;;;5056522;28;20042;-82
2021/09/21 12:32:24;;;;;;;2.50;1.40;;;;;;;;;;5058579;28;20090;-81
2021/09/21 12:35:09;;;;;;;3.45;1.55;;;;;;;;;;5061075;28;20035;-82
2021/09/21 12:38:00;;;;;;;2.95;1.98;;;;;;;;;;5063270;28;20044;-88
2021/09/21 12:40:52;;;;;;;2.80;1.73;;;;;;;;;;5053539;28;20047;-84
2021/09/21 12:43:42;;;;;;;3.47;1.75;;;;;;;;;;5080422;28;20050;-86
2021/09/21 12:46:30;;;;;;;4.03;1.80;;;;;;;;;;5052859;28;20749;-85
2021/09/21 12:49:15;;;;;;;5.68;2.08;;;;;;;;;;5062699;28;20126;-86
2021/09/21 12:52:00;;;;;;;3.65;1.65;;;;;;;;;;5070137;28;20035;-84
2021/09/21 12:54:49;;;;;;;3.47;2.00;;;;;;;;;;5052413;28;20536;-84
2021/09/21 12:57:33;;;;;;;6.45;2.00;;;;;;;;;;5064122;28;20403;-84
2021/09/21 13:00:18;;;;;;;3.70;1.90;;;;;;;;;;5067279;28;20043;-86
2021/09/21 13:03:04;;;;;;;3.47;1.90;;;;;;;;;;5082286;28;20121;-85
2021/09/21 13:05:48;;;;;;;7.63;1.95;;;;;;;;;;5071182;28;20097;-85
2021/09/21 13:08:33;;;;;;;5.03;2.08;;;;;;;;;;5052199;28;20090;-87
2021/09/21 13:11:18;;;;;;;5.18;2.30;;;;;;;;;;5052376;28;20094;-84
2021/09/21 13:14:02;;;;;;;2.85;1.73;;;;;;;;;;5071136;28;20066;-86
2021/09/21 13:16:48;;;;;;;6.25;2.30;;;;;;;;;;5044213;28;20218;-84
2021/09/21 13:19:33;;;;;;;3.35;2.05;;;;;;;;;;5047677;28;20059;-83
2021/09/21 13:22:18;;;;;;;3.70;2.10;;;;;;;;;;5047343;28;20052;-83
2021/09/21 13:25:02;;;;;;;3.65;2.08;;;;;;;;;;5047670;28;20086;-83
2021/09/21 13:27:47;;;;;;;3.10;2.13;;;;;;;;;;5056378;28;20117;-83
2021/09/21 13:30:31;;;;;;;3.33;1.90;;;;;;;;;;5046662;28;20132;-83
2021/09/21 13:33:16;;;;;;;2.95;2.28;;;;;;;;;;5067438;28;20039;-83
2021/09/21 13:36:01;;;;;;;3.35;2.10;;;;;;;;;;5065320;28;20148;-83
2021/09/21 13:38:46;;;;;;;3.30;2.40;;;;;;;;;;5065190;28;20039;-83
2021/09/21 13:41:34;;;;;;;4.80;2.55;;;;;;;;;;5052705;28;20516;-83
2021/09/21 13:44:18;;;;;;;3.95;2.65;;;;;;;;;;5070339;28;20043;-82
2021/09/21 13:47:03;;;;;;;3.10;2.22;;;;;;;;;;5051957;28;20091;-83
2021/09/21 13:49:47;;;;;;;4.88;2.50;;;;;;;;;;5049336;28;20478;-83
2021/09/21 13:52:32;;;;;;;3.00;2.20;;;;;;;;;;5062530;28;20120;-83
2021/09/21 13:55:16;;;;;;;6.93;3.13;;;;;;;;;;5063667;28;20138;-83
2021/09/21 13:58:01;;;;;;;3.22;2.60;;;;;;;;;;5062187;28;20598;-83
2021/09/21 14:00:46;;;;;;;4.25;2.40;;;;;;;;;;5062023;28;20138;-84
2021/09/21 14:03:32;;;;;;;3.00;2.38;;;;;;;;;;5075425;28;20075;-84
2021/09/21 14:06:17;;;;;;;4.10;2.72;;;;;;;;;;5053837;28;20097;-87
2021/09/21 14:09:02;;;;;;;3.65;2.10;;;;;;;;;;5050194;28;20133;-84
2021/09/21 14:11:47;;;;;;;3.70;2.35;;;;;;;;;;5062839;28;20043;-81
2021/09/21 14:14:31;;;;;;;4.80;2.42;;;;;;;;;;5064015;28;20594;-84
2021/09/21 14:17:16;;;;;;;5.43;2.85;;;;;;;;;;5052723;28;20509;-84
2021/09/21 14:20:00;;;;;;;4.30;2.30;;;;;;;;;;5073772;28;20101;-84
2021/09/21 14:22:45;;;;;;;4.03;2.20;;;;;;;;;;5064162;28;20406;-80
2021/09/21 14:25:30;;;;;;;4.75;2.75;;;;;;;;;;5063984;28;20098;-84
2021/09/21 14:28:16;;;;;;;3.95;2.60;;;;;;;;;;5067990;28;20111;-84
2021/09/21 14:31:01;;;;;;;3.90;2.75;;;;;;;;;;5073714;28;20051;-84
2021/09/21 14:33:45;;;;;;;3.35;2.50;;;;;;;;;;5078794;28;20043;-84
2021/09/21 14:36:30;;;;;;;4.18;2.78;;;;;;;;;;5083551;28;20125;-84
2021/09/21 14:39:14;;;;;;;3.95;2.80;;;;;;;;;;5083348;28;20165;-84
2021/09/21 14:41:59;;;;;;;4.53;2.40;;;;;;;;;;5051596;28;20046;-84
2021/09/21 14:44:44;;;;;;;4.35;2.53;;;;;;;;;;5078843;28;20527;-84
2021/09/21 14:47:28;;;;;;;4.88;2.78;;;;;;;;;;5069114;28;20463;-84
2021/09/21 14:50:13;;;;;;;3.72;2.50;;;;;;;;;;5069167;28;20046;-84
2021/09/21 14:52:58;;;;;;;4.30;2.58;;;;;;;;;;5081588;28;20043;-85
2021/09/21 14:55:42;;;;;;;4.47;2.40;;;;;;;;;;5064273;28;20139;-84
2021/09/21 14:58:27;;;;;;;3.80;2.67;;;;;;;;;;5068560;28;20046;-85
2021/09/21 15:01:15;;;;;;;4.18;2.70;;;;;;;;;;5070884;28;20047;-82
2021/09/21 15:04:00;;;;;;;4.10;2.30;;;;;;;;;;5063691;28;20084;-85
2021/09/21 15:06:44;;;;;;;3.08;2.20;;;;;;;;;;5047807;28;20083;-84
2021/09/21 15:09:28;;;;;;;3.67;2.40;;;;;;;;;;5070160;28;20077;-84
2021/09/21 15:12:13;;;;;;;3.08;2.30;;;;;;;;;;5082741;28;20097;-84
2021/09/21 15:14:57;;;;;;;4.75;2.60;;;;;;;;;;5072741;28;20058;-84
2021/09/21 15:17:42;;;;;;;4.78;2.70;;;;;;;;;;5069917;28;20058;-82
2021/09/21 15:20:26;;;;;;;4.47;2.90;;;;;;;;;;5043897;28;20121;-85
2021/09/21 15:23:11;;;;;;;3.65;2.50;;;;;;;;;;5060947;28;20101;-85
2021/09/21 15:25:56;;;;;;;5.82;2.88;;;;;;;;;;5067430;28;20039;-84
2021/09/21 15:28:41;;;;;;;3.58;2.50;;;;;;;;;;5070201;28;20175;-83
2021/09/21 15:31:25;;;;;;;3.63;2.58;;;;;;;;;;5061724;28;20038;-85
2021/09/21 15:34:13;;;;;;;4.95;2.38;;;;;;;;;;5070359;28;20408;-84
2021/09/21 15:37:00;;;;;;;4.15;2.70;;;;;;;;;;5078825;28;20081;-85
2021/09/21 15:39:45;;;;;;;4.38;2.65;;;;;;;;;;5062008;28;20117;-84
2021/09/21 15:42:29;;;;;;;4.13;2.53;;;;;;;;;;5080379;28;20097;-84
2021/09/21 15:45:15;;;;;;;4.00;2.90;;;;;;;;;;5068144;28;20071;-84
2021/09/21 15:47:59;;;;;;;3.67;2.50;;;;;;;;;;5064122;28;20038;-84
2021/09/21 15:50:44;;;;;;;3.80;2.58;;;;;;;;;;5064711;28;20109;-84
2021/09/21 15:53:29;;;;;;;3.88;3.08;;;;;;;;;;5064386;28;20086;-84
2021/09/21 15:56:14;;;;;;;3.95;2.97;;;;;;;;;;5076091;28;20123;-85
2021/09/21 15:58:58;;;;;;;4.07;2.72;;;;;;;;;;5076011;28;20218;-84
2021/09/21 16:01:43;;;;;;;3.53;2.42;;;;;;;;;;5068075;28;20508;-85
2021/09/21 16:04:28;;;;;;;2.97;2.47;;;;;;;;;;5076158;28;20470;-84
2021/09/21 16:07:12;;;;;;;4.30;2.63;;;;;;;;;;5065287;28;20047;-84
2021/09/21 16:09:57;;;;;;;4.15;2.92;;;;;;;;;;5070445;28;20070;-84
2021/09/21 16:12:41;;;;;;;4.40;2.83;;;;;;;;;;5072080;28;20101;-84
2021/09/21 16:15:26;;;;;;;4.00;2.80;;;;;;;;;;5082055;28;20035;-84
2021/09/21 16:18:11;;;;;;;4.43;2.70;;;;;;;;;;5061187;28;20828;-84
2021/09/21 16:20:56;;;;;;;3.60;2.60;;;;;;;;;;5077903;28;20060;-84
2021/09/21 16:23:40;;;;;;;4.68;2.45;;;;;;;;;;5061562;28;20054;-85
2021/09/21 16:26:25;;;;;;;4.13;2.70;;;;;;;;;;5053687;28;20092;-84
2021/09/21 16:29:09;;;;;;;3.97;2.58;;;;;;;;;;5067902;28;20048;-85
2021/09/21 16:31:54;;;;;;;3.40;2.78;;;;;;;;;;5069191;28;20047;-85
2021/09/21 16:34:39;;;;;;;4.03;2.70;;;;;;;;;;5063324;28;20043;-84
2021/09/21 16:37:23;;;;;;;3.05;2.55;;;;;;;;;;5052923;28;20491;-84
2021/09/21 16:40:08;;;;;;;3.40;2.50;;;;;;;;;;5068047;28;20126;-84